createdAt,value
2018-01-11T00:00:15.587Z,8.4
2018-01-11T00:01:18.005Z,8.4
2018-01-11T00:02:20.427Z,8.4
2018-01-11T00:03:23.120Z,8.4
2018-01-11T00:04:25.531Z,8.4
2018-01-11T00:05:27.932Z,8.4
2018-01-11T00:06:30.617Z,8.4
2018-01-11T00:07:33.322Z,8.3
2018-01-11T00:08:35.731Z,8.3
2018-01-11T00:09:38.449Z,8.3
2018-01-11T00:10:40.848Z,8.3
2018-01-11T00:11:43.259Z,8.2
2018-01-11T00:12:45.700Z,8.2
2018-01-11T00:13:48.113Z,8.2
2018-01-11T00:14:50.807Z,8.2
2018-01-11T00:15:53.510Z,8.1
2018-01-11T00:16:55.914Z,8.1
2018-01-11T00:17:58.348Z,8.1
2018-01-11T00:19:01.345Z,8.1
2018-01-11T00:20:03.752Z,8.1
2018-01-11T00:21:06.156Z,8.1
2018-01-11T00:22:08.570Z,8.1
2018-01-11T00:23:10.999Z,8.1
2018-01-11T00:24:13.404Z,8.1
2018-01-11T00:25:16.082Z,8.1
2018-01-11T00:26:18.493Z,8
2018-01-11T00:27:20.962Z,8
2018-01-11T00:28:23.367Z,8
2018-01-11T00:29:25.780Z,8
2018-01-11T00:30:28.577Z,8
2018-01-11T00:31:31.014Z,8
2018-01-11T00:32:33.439Z,8
2018-01-11T00:33:35.851Z,8
2018-01-11T00:34:38.284Z,8
2018-01-11T00:35:40.690Z,8
2018-01-11T00:36:43.106Z,7.9
2018-01-11T00:37:45.539Z,7.9
2018-01-11T00:38:47.957Z,7.9
2018-01-11T00:39:50.932Z,7.9
2018-01-11T00:40:53.633Z,7.9
2018-01-11T00:41:56.032Z,7.9
2018-01-11T00:42:58.443Z,7.8
2018-01-11T00:44:00.851Z,7.8
2018-01-11T00:45:03.265Z,7.8
2018-01-11T00:46:05.740Z,7.8
2018-01-11T00:47:08.570Z,7.8
2018-01-11T00:48:10.982Z,7.8
2018-01-11T00:49:13.401Z,7.8
2018-01-11T00:50:16.099Z,7.8
2018-01-11T00:51:19.584Z,7.8
2018-01-11T00:52:21.998Z,7.8
2018-01-11T00:53:24.627Z,7.8
2018-01-11T00:54:27.317Z,7.7
2018-01-11T00:55:30.539Z,7.7
2018-01-11T00:56:33.005Z,7.7
2018-01-11T00:57:35.587Z,7.7
2018-01-11T00:58:37.997Z,7.7
2018-01-11T00:59:41.102Z,7.7
2018-01-11T01:00:43.733Z,7.7
2018-01-11T01:01:46.393Z,7.6
2018-01-11T01:02:48.990Z,7.7
2018-01-11T01:03:51.438Z,7.6
2018-01-11T01:04:53.849Z,7.6
2018-01-11T01:05:56.254Z,7.5
2018-01-11T01:06:58.671Z,7.5
2018-01-11T01:08:01.377Z,7.5
2018-01-11T01:09:03.789Z,7.4
2018-01-11T01:10:06.189Z,7.4
2018-01-11T01:11:08.600Z,7.4
2018-01-11T01:12:11.000Z,7.4
2018-01-11T01:13:13.428Z,7.4
2018-01-11T01:14:15.833Z,7.4
2018-01-11T01:15:18.242Z,7.4
2018-01-11T01:16:20.651Z,7.4
2018-01-11T01:17:23.346Z,7.4
2018-01-11T01:18:26.040Z,7.4
2018-01-11T01:19:28.449Z,7.4
2018-01-11T01:20:30.860Z,7.4
2018-01-11T01:21:33.273Z,7.4
2018-01-11T01:22:35.963Z,7.4
2018-01-11T01:23:38.399Z,7.4
2018-01-11T01:24:40.789Z,7.4
2018-01-11T01:25:43.197Z,7.4
2018-01-11T01:26:45.611Z,7.4
2018-01-11T01:27:48.026Z,7.4
2018-01-11T01:28:50.713Z,7.4
2018-01-11T01:29:53.126Z,7.4
2018-01-11T01:30:55.531Z,7.4
2018-01-11T01:31:58.255Z,7.4
2018-01-11T01:33:00.955Z,7.4
2018-01-11T01:34:03.355Z,7.5
2018-01-11T01:35:05.768Z,7.5
2018-01-11T01:36:08.174Z,7.5
2018-01-11T01:37:10.573Z,7.5
2018-01-11T01:38:12.985Z,7.5
2018-01-11T01:39:15.396Z,7.5
2018-01-11T01:40:18.101Z,7.6
2018-01-11T01:41:20.781Z,7.5
2018-01-11T01:42:23.189Z,7.5
2018-01-11T01:43:25.902Z,7.5
2018-01-11T01:44:28.497Z,7.5
2018-01-11T01:45:31.904Z,7.5
2018-01-11T01:46:35.270Z,7.5
2018-01-11T01:47:38.160Z,7.5
2018-01-11T01:48:40.789Z,7.6
2018-01-11T01:49:43.476Z,7.6
2018-01-11T01:50:46.506Z,7.6
2018-01-11T01:51:48.915Z,7.6
2018-01-11T01:52:51.323Z,7.6
2018-01-11T01:53:53.734Z,7.6
2018-01-11T01:54:56.144Z,7.6
2018-01-11T01:55:58.835Z,7.6
2018-01-11T01:57:01.524Z,7.6
2018-01-11T01:58:03.931Z,7.6
2018-01-11T01:59:06.617Z,7.6
2018-01-11T02:00:09.060Z,7.6
2018-01-11T02:01:11.750Z,7.7
2018-01-11T02:02:14.249Z,7.6
2018-01-11T02:03:16.716Z,7.6
2018-01-11T02:04:19.130Z,7.7
2018-01-11T02:05:21.527Z,7.7
2018-01-11T02:06:23.935Z,7.7
2018-01-11T02:07:26.345Z,7.7
2018-01-11T02:08:28.755Z,7.7
2018-01-11T02:09:31.449Z,7.7
2018-01-11T02:10:34.664Z,7.7
2018-01-11T02:11:37.355Z,7.7
2018-01-11T02:12:39.776Z,7.6
2018-01-11T02:13:42.474Z,7.7
2018-01-11T02:14:44.881Z,7.7
2018-01-11T02:15:47.289Z,7.6
2018-01-11T02:16:49.973Z,7.7
2018-01-11T02:17:52.385Z,7.7
2018-01-11T02:18:54.793Z,7.7
2018-01-11T02:19:57.193Z,7.7
2018-01-11T02:20:59.600Z,7.7
2018-01-11T02:22:02.025Z,7.7
2018-01-11T02:23:04.437Z,7.7
2018-01-11T02:24:06.836Z,7.7
2018-01-11T02:25:09.251Z,7.7
2018-01-11T02:26:11.660Z,7.7
2018-01-11T02:27:14.070Z,7.6
2018-01-11T02:28:16.481Z,7.6
2018-01-11T02:29:18.876Z,7.6
2018-01-11T02:30:21.285Z,7.6
2018-01-11T02:31:23.700Z,7.6
2018-01-11T02:32:26.389Z,7.6
2018-01-11T02:33:28.794Z,7.6
2018-01-11T02:34:31.228Z,7.6
2018-01-11T02:35:33.934Z,7.6
2018-01-11T02:36:36.347Z,7.6
2018-01-11T02:37:39.051Z,7.6
2018-01-11T02:38:41.454Z,7.6
2018-01-11T02:39:43.866Z,7.7
2018-01-11T02:40:46.272Z,7.7
2018-01-11T02:41:48.682Z,7.7
2018-01-11T02:42:51.089Z,7.7
2018-01-11T02:43:53.498Z,7.7
2018-01-11T02:44:55.910Z,7.7
2018-01-11T02:45:58.336Z,7.8
2018-01-11T02:47:00.745Z,7.8
2018-01-11T02:48:03.147Z,7.8
2018-01-11T02:49:05.567Z,7.8
2018-01-11T02:50:08.829Z,7.8
2018-01-11T02:51:11.246Z,7.8
2018-01-11T02:52:13.655Z,7.9
2018-01-11T02:53:16.056Z,7.9
2018-01-11T02:54:18.465Z,7.9
2018-01-11T02:55:21.205Z,7.9
2018-01-11T02:56:23.931Z,7.9
2018-01-11T02:57:26.346Z,7.9
2018-01-11T02:58:29.042Z,7.9
2018-01-11T02:59:31.453Z,7.8
2018-01-11T03:00:33.866Z,7.8
2018-01-11T03:01:36.276Z,7.8
2018-01-11T03:02:38.676Z,7.8
2018-01-11T03:03:41.099Z,7.8
2018-01-11T03:04:43.512Z,7.8
2018-01-11T03:05:45.924Z,7.8
2018-01-11T03:06:48.333Z,7.8
2018-01-11T03:07:50.746Z,7.8
2018-01-11T03:08:53.154Z,7.8
2018-01-11T03:09:55.546Z,7.9
2018-01-11T03:10:57.962Z,7.9
2018-01-11T03:12:00.374Z,7.9
2018-01-11T03:13:03.063Z,7.9
2018-01-11T03:14:05.480Z,7.9
2018-01-11T03:15:07.885Z,7.9
2018-01-11T03:16:10.297Z,7.8
2018-01-11T03:17:12.718Z,7.8
2018-01-11T03:18:15.414Z,7.8
2018-01-11T03:19:17.826Z,7.7
2018-01-11T03:20:20.241Z,7.7
2018-01-11T03:21:22.645Z,7.7
2018-01-11T03:22:25.053Z,7.7
2018-01-11T03:23:27.479Z,7.7
2018-01-11T03:24:30.165Z,7.6
2018-01-11T03:25:32.861Z,7.6
2018-01-11T03:26:35.268Z,7.6
2018-01-11T03:27:37.963Z,7.6
2018-01-11T03:28:40.380Z,7.7
2018-01-11T03:29:42.788Z,7.7
2018-01-11T03:30:45.192Z,7.6
2018-01-11T03:31:47.604Z,7.6
2018-01-11T03:32:50.016Z,7.6
2018-01-11T03:33:52.700Z,7.6
2018-01-11T03:34:55.112Z,7.6
2018-01-11T03:35:57.534Z,7.6
2018-01-11T03:36:59.944Z,7.6
2018-01-11T03:38:02.347Z,7.6
2018-01-11T03:39:04.752Z,7.6
2018-01-11T03:40:07.162Z,7.6
2018-01-11T03:41:09.859Z,7.6
2018-01-11T03:42:12.266Z,7.6
2018-01-11T03:43:14.948Z,7.6
2018-01-11T03:44:17.642Z,7.6
2018-01-11T03:45:20.062Z,7.5
2018-01-11T03:46:22.466Z,7.5
2018-01-11T03:47:24.873Z,7.5
2018-01-11T03:48:27.284Z,7.5
2018-01-11T03:49:29.742Z,7.5
2018-01-11T03:50:32.436Z,7.6
2018-01-11T03:51:34.846Z,7.5
2018-01-11T03:52:37.249Z,7.6
2018-01-11T03:53:39.664Z,7.6
2018-01-11T03:54:42.067Z,7.5
2018-01-11T03:55:44.470Z,7.5
2018-01-11T03:56:46.882Z,7.5
2018-01-11T03:57:49.584Z,7.5
2018-01-11T03:58:51.992Z,7.5
2018-01-11T03:59:54.403Z,7.5
2018-01-11T04:00:57.150Z,7.5
2018-01-11T04:01:59.561Z,7.5
2018-01-11T04:03:02.261Z,7.5
2018-01-11T04:04:04.670Z,7.5
2018-01-11T04:05:07.079Z,7.5
2018-01-11T04:06:09.492Z,7.5
2018-01-11T04:07:11.902Z,7.5
2018-01-11T04:08:14.308Z,7.5
2018-01-11T04:09:16.705Z,7.5
2018-01-11T04:10:19.124Z,7.5
2018-01-11T04:11:21.532Z,7.5
2018-01-11T04:12:23.946Z,7.5
2018-01-11T04:13:26.357Z,7.6
2018-01-11T04:14:28.767Z,7.6
2018-01-11T04:15:31.177Z,7.6
2018-01-11T04:16:33.590Z,7.5
2018-01-11T04:17:35.990Z,7.6
2018-01-11T04:18:38.445Z,7.6
2018-01-11T04:19:40.823Z,7.6
2018-01-11T04:20:43.219Z,7.6
2018-01-11T04:21:45.632Z,7.6
2018-01-11T04:22:48.045Z,7.6
2018-01-11T04:23:50.452Z,7.6
2018-01-11T04:24:52.868Z,7.6
2018-01-11T04:25:55.266Z,7.6
2018-01-11T04:26:57.673Z,7.6
2018-01-11T04:28:00.376Z,7.7
2018-01-11T04:29:03.057Z,7.6
2018-01-11T04:30:05.472Z,7.6
2018-01-11T04:31:07.875Z,7.6
2018-01-11T04:32:10.284Z,7.6
2018-01-11T04:33:12.981Z,7.6
2018-01-11T04:34:15.387Z,7.7
2018-01-11T04:35:17.800Z,7.7
2018-01-11T04:36:20.204Z,7.7
2018-01-11T04:37:22.625Z,7.7
2018-01-11T04:38:25.031Z,7.7
2018-01-11T04:39:27.442Z,7.7
2018-01-11T04:40:29.847Z,7.6
2018-01-11T04:41:32.256Z,7.6
2018-01-11T04:42:34.663Z,7.6
2018-01-11T04:43:37.076Z,7.6
2018-01-11T04:44:39.469Z,7.6
2018-01-11T04:45:42.159Z,7.6
2018-01-11T04:46:44.574Z,7.6
2018-01-11T04:47:46.982Z,7.6
2018-01-11T04:48:49.380Z,7.6
2018-01-11T04:49:51.785Z,7.6
2018-01-11T04:50:54.187Z,7.6
2018-01-11T04:51:56.610Z,7.6
2018-01-11T04:52:59.022Z,7.5
2018-01-11T04:54:01.436Z,7.6
2018-01-11T04:55:03.851Z,7.5
2018-01-11T04:56:06.259Z,7.6
2018-01-11T04:57:08.672Z,7.5
2018-01-11T04:58:11.084Z,7.5
2018-01-11T04:59:13.481Z,7.5
2018-01-11T05:00:15.892Z,7.5
2018-01-11T05:01:18.304Z,7.5
2018-01-11T05:02:20.716Z,7.5
2018-01-11T05:03:23.120Z,7.5
2018-01-11T05:04:25.831Z,7.5
2018-01-11T05:05:28.518Z,7.5
2018-01-11T05:06:30.922Z,7.5
2018-01-11T05:07:33.329Z,7.5
2018-01-11T05:08:35.750Z,7.5
2018-01-11T05:09:38.153Z,7.5
2018-01-11T05:10:40.563Z,7.5
2018-01-11T05:11:42.969Z,7.5
2018-01-11T05:12:45.375Z,7.5
2018-01-11T05:13:47.784Z,7.5
2018-01-11T05:14:50.193Z,7.5
2018-01-11T05:15:52.591Z,7.5
2018-01-11T05:16:55.006Z,7.4
2018-01-11T05:17:57.410Z,7.4
2018-01-11T05:18:59.816Z,7.3
2018-01-11T05:20:02.527Z,7.3
2018-01-11T05:21:05.222Z,7.3
2018-01-11T05:22:07.938Z,7.3
2018-01-11T05:23:10.362Z,7.3
2018-01-11T05:24:12.771Z,7.3
2018-01-11T05:25:15.179Z,7.3
2018-01-11T05:26:17.590Z,7.2
2018-01-11T05:27:19.998Z,7.2
2018-01-11T05:28:22.691Z,7.2
2018-01-11T05:29:25.100Z,7.2
2018-01-11T05:30:27.782Z,7.2
2018-01-11T05:31:30.190Z,7.2
2018-01-11T05:32:32.607Z,7.2
2018-01-11T05:33:35.017Z,7.2
2018-01-11T05:34:37.419Z,7.2
2018-01-11T05:35:39.829Z,7.2
2018-01-11T05:36:42.534Z,7.2
2018-01-11T05:37:45.225Z,7.2
2018-01-11T05:38:47.636Z,7.2
2018-01-11T05:39:50.046Z,7.2
2018-01-11T05:40:52.453Z,7.2
2018-01-11T05:41:54.893Z,7.2
2018-01-11T05:42:57.321Z,7.2
2018-01-11T05:43:59.721Z,7.2
2018-01-11T05:45:02.143Z,7.2
2018-01-11T05:46:04.551Z,7.2
2018-01-11T05:47:06.973Z,7.2
2018-01-11T05:48:09.383Z,7.2
2018-01-11T05:49:11.778Z,7.2
2018-01-11T05:50:14.203Z,7.2
2018-01-11T05:51:21.088Z,7.2
2018-01-11T05:52:29.632Z,7.2
2018-01-11T05:53:32.117Z,7.2
2018-01-11T05:54:34.518Z,7.2
2018-01-11T05:55:36.925Z,7.2
2018-01-11T05:56:48.814Z,7.2
2018-01-11T05:57:57.099Z,7.2
2018-01-11T05:59:05.080Z,7.2
2018-01-11T06:00:12.039Z,7.2
2018-01-11T06:01:18.382Z,7.2
2018-01-11T06:02:23.613Z,7.2
2018-01-11T06:03:26.024Z,7.3
2018-01-11T06:04:32.262Z,7.3
2018-01-11T06:05:34.950Z,7.3
2018-01-11T06:06:37.643Z,7.3
2018-01-11T06:07:40.042Z,7.3
2018-01-11T06:08:42.748Z,7.3
2018-01-11T06:09:45.151Z,7.4
2018-01-11T06:10:47.564Z,7.4
2018-01-11T06:11:49.980Z,7.4
2018-01-11T06:12:52.390Z,7.4
2018-01-11T06:13:55.091Z,7.4
2018-01-11T06:14:57.521Z,7.4
2018-01-11T06:16:00.207Z,7.5
2018-01-11T06:17:02.622Z,7.5
2018-01-11T06:18:05.671Z,7.5
2018-01-11T06:19:08.072Z,7.5
2018-01-11T06:20:10.474Z,7.5
2018-01-11T06:21:13.459Z,7.5
2018-01-11T06:22:15.864Z,7.6
2018-01-11T06:23:18.284Z,7.6
2018-01-11T06:24:20.679Z,7.6
2018-01-11T06:25:23.102Z,7.6
2018-01-11T06:26:25.506Z,7.6
2018-01-11T06:27:27.911Z,7.6
2018-01-11T06:28:30.323Z,7.6
2018-01-11T06:29:32.741Z,7.6
2018-01-11T06:30:35.143Z,7.6
2018-01-11T06:31:37.587Z,7.6
2018-01-11T06:32:40.680Z,7.7
2018-01-11T06:33:43.085Z,7.7
2018-01-11T06:34:45.506Z,7.7
2018-01-11T06:35:47.916Z,7.7
2018-01-11T06:36:50.323Z,7.7
2018-01-11T06:37:53.016Z,7.7
2018-01-11T06:38:55.427Z,7.7
2018-01-11T06:39:57.835Z,7.7
2018-01-11T06:41:00.250Z,7.7
2018-01-11T06:42:02.935Z,7.7
2018-01-11T06:43:05.629Z,7.7
2018-01-11T06:44:08.046Z,7.7
2018-01-11T06:45:10.446Z,7.7
2018-01-11T06:46:12.855Z,7.8
2018-01-11T06:47:15.270Z,7.8
2018-01-11T06:48:17.679Z,7.8
2018-01-11T06:49:20.374Z,7.8
2018-01-11T06:50:22.791Z,7.8
2018-01-11T06:51:25.199Z,7.8
2018-01-11T06:52:27.607Z,7.8
2018-01-11T06:53:30.301Z,7.8
2018-01-11T06:54:32.709Z,7.8
2018-01-11T06:55:35.124Z,7.8
2018-01-11T06:56:37.521Z,7.8
2018-01-11T06:57:40.211Z,7.9
2018-01-11T06:58:42.627Z,7.9
2018-01-11T06:59:45.036Z,7.9
2018-01-11T07:00:47.452Z,7.9
2018-01-11T07:01:49.857Z,7.9
2018-01-11T07:02:52.268Z,8
2018-01-11T07:03:54.668Z,7.9
2018-01-11T07:04:57.074Z,7.9
2018-01-11T07:05:59.775Z,8
2018-01-11T07:07:02.494Z,8
2018-01-11T07:08:04.890Z,8
2018-01-11T07:09:07.307Z,8
2018-01-11T07:10:09.719Z,8
2018-01-11T07:11:12.127Z,8
2018-01-11T07:12:14.544Z,8
2018-01-11T07:13:16.943Z,8
2018-01-11T07:14:19.353Z,8.1
2018-01-11T07:15:21.765Z,8.1
2018-01-11T07:16:24.171Z,8
2018-01-11T07:17:26.866Z,8.1
2018-01-11T07:18:29.272Z,8.1
2018-01-11T07:19:31.679Z,8.1
2018-01-11T07:20:34.379Z,8.1
2018-01-11T07:21:36.788Z,8.1
2018-01-11T07:22:39.186Z,8.1
2018-01-11T07:23:41.604Z,8.1
2018-01-11T07:24:44.597Z,8.1
2018-01-11T07:25:47.013Z,8.1
2018-01-11T07:26:49.430Z,8.1
2018-01-11T07:27:51.826Z,8.1
2018-01-11T07:28:54.238Z,8.1
2018-01-11T07:29:56.951Z,8.1
2018-01-11T07:30:59.362Z,8.2
2018-01-11T07:32:01.758Z,8.2
2018-01-11T07:33:04.471Z,8.2
2018-01-11T07:34:06.887Z,8.2
2018-01-11T07:35:09.303Z,8.2
2018-01-11T07:36:11.712Z,8.2
2018-01-11T07:37:14.130Z,8.2
2018-01-11T07:38:16.835Z,8.1
2018-01-11T07:39:19.258Z,8.1
2018-01-11T07:40:21.667Z,8.1
2018-01-11T07:41:24.064Z,8.2
2018-01-11T07:42:26.755Z,8.1
2018-01-11T07:43:29.164Z,8.2
2018-01-11T07:44:31.572Z,8.2
2018-01-11T07:45:33.986Z,8.2
2018-01-11T07:46:36.388Z,8.2
2018-01-11T07:47:38.797Z,8.2
2018-01-11T07:48:41.212Z,8.2
2018-01-11T07:49:43.621Z,8.3
2018-01-11T07:50:46.025Z,8.2
2018-01-11T07:51:48.447Z,8.3
2018-01-11T07:52:50.849Z,8.3
2018-01-11T07:53:53.274Z,8.4
2018-01-11T07:54:55.682Z,8.4
2018-01-11T07:55:58.081Z,8.4
2018-01-11T07:57:00.492Z,8.4
2018-01-11T07:58:02.902Z,8.4
2018-01-11T07:59:05.309Z,8.4
2018-01-11T08:00:07.725Z,8.4
2018-01-11T08:01:10.134Z,8.4
2018-01-11T08:02:12.542Z,8.4
2018-01-11T08:03:14.940Z,8.4
2018-01-11T08:04:17.352Z,8.4
2018-01-11T08:05:19.769Z,8.4
2018-01-11T08:06:22.177Z,8.5
2018-01-11T08:07:24.594Z,8.4
2018-01-11T08:08:27.290Z,8.4
2018-01-11T08:09:29.699Z,8.4
2018-01-11T08:10:32.113Z,8.4
2018-01-11T08:11:34.820Z,8.4
2018-01-11T08:12:37.226Z,8.4
2018-01-11T08:13:39.644Z,8.4
2018-01-11T08:14:42.396Z,8.4
2018-01-11T08:15:44.748Z,8.4
2018-01-11T08:16:47.159Z,8.4
2018-01-11T08:17:49.557Z,8.5
2018-01-11T08:18:51.970Z,8.4
2018-01-11T08:19:54.391Z,8.4
2018-01-11T08:20:56.797Z,8.5
2018-01-11T08:21:59.502Z,8.4
2018-01-11T08:23:01.918Z,8.4
2018-01-11T08:24:04.340Z,8.4
2018-01-11T08:25:06.761Z,8.4
2018-01-11T08:26:09.173Z,8.4
2018-01-11T08:27:11.566Z,8.3
2018-01-11T08:28:14.014Z,8.3
2018-01-11T08:29:16.395Z,8.3
2018-01-11T08:30:18.801Z,8.3
2018-01-11T08:31:21.212Z,8.3
2018-01-11T08:32:23.620Z,8.3
2018-01-11T08:33:26.024Z,8.3
2018-01-11T08:34:28.432Z,8.4
2018-01-11T08:35:30.833Z,8.4
2018-01-11T08:36:33.254Z,8.4
2018-01-11T08:37:35.655Z,8.4
2018-01-11T08:38:38.073Z,8.4
2018-01-11T08:39:40.770Z,8.4
2018-01-11T08:40:43.174Z,8.4
2018-01-11T08:41:45.589Z,8.4
2018-01-11T08:42:48.007Z,8.4
2018-01-11T08:43:50.406Z,8.4
2018-01-11T08:44:52.832Z,8.4
2018-01-11T08:45:55.515Z,8.4
2018-01-11T08:46:57.927Z,8.5
2018-01-11T08:48:00.346Z,8.5
2018-01-11T08:49:02.759Z,8.5
2018-01-11T08:50:05.171Z,8.5
2018-01-11T08:51:07.576Z,8.5
2018-01-11T08:52:09.982Z,8.5
2018-01-11T08:53:12.404Z,8.5
2018-01-11T08:54:14.816Z,8.5
2018-01-11T08:55:17.211Z,8.6
2018-01-11T08:56:19.628Z,8.6
2018-01-11T08:57:22.039Z,8.5
2018-01-11T08:58:24.462Z,8.6
2018-01-11T08:59:27.146Z,8.6
2018-01-11T09:00:29.571Z,8.6
2018-01-11T09:01:31.983Z,8.6
2018-01-11T09:02:34.386Z,8.6
2018-01-11T09:03:36.804Z,8.6
2018-01-11T09:04:39.218Z,8.6
2018-01-11T09:05:41.632Z,8.6
2018-01-11T09:06:44.044Z,8.6
2018-01-11T09:07:46.439Z,8.6
2018-01-11T09:08:48.849Z,8.6
2018-01-11T09:09:51.269Z,8.6
2018-01-11T09:10:53.677Z,8.6
2018-01-11T09:11:56.370Z,8.5
2018-01-11T09:12:58.783Z,8.5
2018-01-11T09:14:01.478Z,8.5
2018-01-11T09:15:03.895Z,8.4
2018-01-11T09:16:06.588Z,8.4
2018-01-11T09:17:09.284Z,8.4
2018-01-11T09:18:11.689Z,8.4
2018-01-11T09:19:14.114Z,8.4
2018-01-11T09:20:16.523Z,8.4
2018-01-11T09:21:18.932Z,8.4
2018-01-11T09:22:21.348Z,8.4
2018-01-11T09:23:23.763Z,8.4
2018-01-11T09:24:26.184Z,8.4
2018-01-11T09:25:28.583Z,8.4
2018-01-11T09:26:30.985Z,8.4
2018-01-11T09:27:33.401Z,8.4
2018-01-11T09:28:35.818Z,8.4
2018-01-11T09:29:38.226Z,8.4
2018-01-11T09:30:40.921Z,8.5
2018-01-11T09:31:43.341Z,8.4
2018-01-11T09:32:45.753Z,8.4
2018-01-11T09:33:48.144Z,8.4
2018-01-11T09:34:50.566Z,8.4
2018-01-11T09:35:52.991Z,8.4
2018-01-11T09:36:55.529Z,8.4
2018-01-11T09:37:58.514Z,8.4
2018-01-11T09:39:01.209Z,8.4
2018-01-11T09:40:03.612Z,8.4
2018-01-11T09:41:06.033Z,8.5
2018-01-11T09:42:08.442Z,8.5
2018-01-11T09:43:10.843Z,8.5
2018-01-11T09:44:13.827Z,8.5
2018-01-11T09:45:16.243Z,8.5
2018-01-11T09:46:18.644Z,8.4
2018-01-11T09:47:21.053Z,8.4
2018-01-11T09:48:23.455Z,8.4
2018-01-11T09:49:25.866Z,8.4
2018-01-11T09:50:28.568Z,8.4
2018-01-11T09:51:31.259Z,8.4
2018-01-11T09:52:33.668Z,8.4
2018-01-11T09:53:36.086Z,8.5
2018-01-11T09:54:38.493Z,8.5
2018-01-11T09:55:40.905Z,8.5
2018-01-11T09:56:43.340Z,8.5
2018-01-11T09:57:46.043Z,8.5
2018-01-11T09:58:48.446Z,8.5
2018-01-11T09:59:50.869Z,8.5
2018-01-11T10:00:53.560Z,8.5
2018-01-11T10:01:55.965Z,8.5
2018-01-11T10:02:58.375Z,8.5
2018-01-11T10:04:00.784Z,8.5
2018-01-11T10:05:03.472Z,8.5
2018-01-11T10:06:05.894Z,8.6
2018-01-11T10:07:08.302Z,8.6
2018-01-11T10:08:10.716Z,8.6
2018-01-11T10:09:13.125Z,8.6
2018-01-11T10:10:15.542Z,8.6
2018-01-11T10:11:17.947Z,8.6
2018-01-11T10:12:20.645Z,8.6
2018-01-11T10:13:23.050Z,8.6
2018-01-11T10:14:25.747Z,8.6
2018-01-11T10:15:28.154Z,8.7
2018-01-11T10:16:30.564Z,8.6
2018-01-11T10:17:33.255Z,8.7
2018-01-11T10:18:35.678Z,8.7
2018-01-11T10:19:38.091Z,8.7
2018-01-11T10:20:40.497Z,8.7
2018-01-11T10:21:42.914Z,8.7
2018-01-11T10:22:45.326Z,8.7
2018-01-11T10:23:47.742Z,8.7
2018-01-11T10:24:50.160Z,8.8
2018-01-11T10:25:52.556Z,8.7
2018-01-11T10:26:54.962Z,8.8
2018-01-11T10:27:57.385Z,8.7
2018-01-11T10:29:00.079Z,8.7
2018-01-11T10:30:02.490Z,8.8
2018-01-11T10:31:04.892Z,8.8
2018-01-11T10:32:07.301Z,8.7
2018-01-11T10:33:09.725Z,8.7
2018-01-11T10:34:12.134Z,8.7
2018-01-11T10:35:14.545Z,8.8
2018-01-11T10:36:16.953Z,8.8
2018-01-11T10:37:19.370Z,8.8
2018-01-11T10:38:21.784Z,8.8
2018-01-11T10:39:24.192Z,8.8
2018-01-11T10:40:26.590Z,8.8
2018-01-11T10:41:29.006Z,8.8
2018-01-11T10:42:31.995Z,8.8
2018-01-11T10:43:34.393Z,8.8
2018-01-11T10:44:36.814Z,8.8
2018-01-11T10:45:39.228Z,8.8
2018-01-11T10:46:41.916Z,8.8
2018-01-11T10:47:44.331Z,8.8
2018-01-11T10:48:46.742Z,8.8
2018-01-11T10:49:49.431Z,8.8
2018-01-11T10:50:51.850Z,8.8
2018-01-11T10:51:54.542Z,8.8
2018-01-11T10:52:56.951Z,8.8
2018-01-11T10:53:59.368Z,8.9
2018-01-11T10:55:02.056Z,8.9
2018-01-11T10:56:04.462Z,8.9
2018-01-11T10:57:07.152Z,8.9
2018-01-11T10:58:09.569Z,8.9
2018-01-11T10:59:12.037Z,8.9
2018-01-11T11:00:14.376Z,8.9
2018-01-11T11:01:16.787Z,8.9
2018-01-11T11:02:19.200Z,8.9
2018-01-11T11:03:21.610Z,8.9
2018-01-11T11:04:24.024Z,8.9
2018-01-11T11:05:26.427Z,9
2018-01-11T11:06:28.855Z,9
2018-01-11T11:07:31.553Z,9
2018-01-11T11:08:33.958Z,9
2018-01-11T11:09:36.369Z,9
2018-01-11T11:10:38.772Z,9
2018-01-11T11:11:41.185Z,9
2018-01-11T11:12:43.604Z,9.1
2018-01-11T11:13:46.008Z,9.1
2018-01-11T11:14:48.992Z,9.1
2018-01-11T11:15:51.706Z,9.1
2018-01-11T11:16:54.110Z,9.1
2018-01-11T11:17:56.523Z,9.1
2018-01-11T11:18:58.935Z,9.1
2018-01-11T11:20:01.403Z,9.1
2018-01-11T11:21:03.763Z,9.1
2018-01-11T11:22:06.171Z,9.1
2018-01-11T11:23:08.573Z,9.1
2018-01-11T11:24:10.990Z,9.1
2018-01-11T11:25:13.398Z,9.1
2018-01-11T11:26:15.815Z,9.1
2018-01-11T11:27:18.511Z,9.1
2018-01-11T11:28:20.936Z,9.2
2018-01-11T11:29:23.619Z,9.2
2018-01-11T11:30:26.036Z,9.2
2018-01-11T11:31:28.441Z,9.2
2018-01-11T11:32:30.863Z,9.2
2018-01-11T11:33:33.564Z,9.2
2018-01-11T11:34:35.975Z,9.2
2018-01-11T11:35:38.384Z,9.2
2018-01-11T11:36:40.798Z,9.2
2018-01-11T11:37:43.212Z,9.3
2018-01-11T11:38:45.632Z,9.2
2018-01-11T11:39:48.033Z,9.3
2018-01-11T11:40:50.443Z,9.3
2018-01-11T11:41:52.861Z,9.3
2018-01-11T11:42:55.553Z,9.3
2018-01-11T11:43:57.972Z,9.4
2018-01-11T11:45:00.391Z,9.4
2018-01-11T11:46:02.806Z,9.4
2018-01-11T11:47:05.225Z,9.4
2018-01-11T11:48:07.922Z,9.4
2018-01-11T11:49:10.318Z,9.4
2018-01-11T11:50:13.022Z,9.4
2018-01-11T11:51:15.707Z,9.4
2018-01-11T11:52:18.119Z,9.4
2018-01-11T11:53:20.531Z,9.5
2018-01-11T11:54:22.945Z,9.5
2018-01-11T11:55:25.358Z,9.5
2018-01-11T11:56:27.783Z,9.5
2018-01-11T11:57:30.188Z,9.5
2018-01-11T11:58:32.611Z,9.5
2018-01-11T11:59:35.014Z,9.5
2018-01-11T12:00:37.429Z,9.5
2018-01-11T12:01:39.837Z,9.6
2018-01-11T12:02:42.244Z,9.6
2018-01-11T12:03:44.945Z,9.6
2018-01-11T12:04:47.917Z,9.6
2018-01-11T12:05:50.327Z,9.6
2018-01-11T12:06:53.032Z,9.6
2018-01-11T12:07:55.444Z,9.6
2018-01-11T12:08:58.142Z,9.6
2018-01-11T12:10:00.555Z,9.6
2018-01-11T12:11:02.961Z,9.6
2018-01-11T12:12:05.385Z,9.6
2018-01-11T12:13:07.797Z,9.6
2018-01-11T12:14:10.205Z,9.6
2018-01-11T12:15:12.631Z,9.6
2018-01-11T12:16:15.048Z,9.6
2018-01-11T12:17:17.750Z,9.7
2018-01-11T12:18:20.160Z,9.7
2018-01-11T12:19:22.571Z,9.7
2018-01-11T12:20:24.977Z,9.7
2018-01-11T12:21:27.394Z,9.7
2018-01-11T12:22:29.796Z,9.7
2018-01-11T12:23:32.210Z,9.7
2018-01-11T12:24:34.632Z,9.7
2018-01-11T12:25:37.048Z,9.7
2018-01-11T12:26:39.462Z,9.7
2018-01-11T12:27:42.172Z,9.7
2018-01-11T12:28:44.583Z,9.7
2018-01-11T12:29:47.015Z,9.8
2018-01-11T12:30:49.395Z,9.8
2018-01-11T12:31:51.808Z,9.8
2018-01-11T12:32:54.221Z,9.8
2018-01-11T12:33:56.640Z,9.8
2018-01-11T12:34:59.048Z,9.8
2018-01-11T12:36:01.462Z,9.9
2018-01-11T12:37:03.882Z,9.8
2018-01-11T12:38:06.294Z,9.8
2018-01-11T12:39:08.984Z,9.8
2018-01-11T12:40:11.402Z,9.8
2018-01-11T12:41:13.820Z,9.9
2018-01-11T12:42:16.218Z,9.9
2018-01-11T12:43:18.932Z,9.9
2018-01-11T12:44:21.341Z,9.9
2018-01-11T12:45:23.757Z,9.9
2018-01-11T12:46:26.177Z,9.9
2018-01-11T12:47:28.587Z,9.9
2018-01-11T12:48:31.005Z,9.9
2018-01-11T12:49:33.423Z,9.9
2018-01-11T12:50:36.115Z,9.9
2018-01-11T12:51:38.526Z,9.9
2018-01-11T12:52:40.940Z,9.9
2018-01-11T12:53:43.627Z,9.9
2018-01-11T12:54:46.046Z,9.9
2018-01-11T12:55:48.457Z,9.9
2018-01-11T12:56:50.869Z,9.9
2018-01-11T12:57:53.279Z,9.9
2018-01-11T12:58:55.690Z,9.9
2018-01-11T12:59:58.096Z,9.9
2018-01-11T13:01:00.803Z,10
2018-01-11T13:02:03.213Z,9.9
2018-01-11T13:03:05.636Z,10
2018-01-11T13:04:08.039Z,10
2018-01-11T13:05:10.743Z,10
2018-01-11T13:06:13.155Z,10
2018-01-11T13:07:15.849Z,10
2018-01-11T13:08:18.266Z,10
2018-01-11T13:09:20.685Z,10
2018-01-11T13:10:23.094Z,10
2018-01-11T13:11:25.519Z,10
2018-01-11T13:12:27.923Z,10
2018-01-11T13:13:30.334Z,10.1
2018-01-11T13:14:32.758Z,10.1
2018-01-11T13:15:35.164Z,10.1
2018-01-11T13:16:37.578Z,10.1
2018-01-11T13:17:39.990Z,10.1
2018-01-11T13:18:42.409Z,10.1
2018-01-11T13:19:44.831Z,10.1
2018-01-11T13:20:47.245Z,10.1
2018-01-11T13:21:49.643Z,10.1
2018-01-11T13:22:52.061Z,10.1
2018-01-11T13:23:54.467Z,10.1
2018-01-11T13:24:56.888Z,10.1
2018-01-11T13:25:59.574Z,10.1
2018-01-11T13:27:01.999Z,10.1
2018-01-11T13:28:04.409Z,10.1
2018-01-11T13:29:06.824Z,10.1
2018-01-11T13:30:09.240Z,10.1
2018-01-11T13:31:11.950Z,10.1
2018-01-11T13:32:14.653Z,10.1
2018-01-11T13:33:17.066Z,10.1
2018-01-11T13:34:19.482Z,10
2018-01-11T13:35:22.188Z,10.1
2018-01-11T13:36:24.890Z,10.1
2018-01-11T13:37:27.310Z,10.1
2018-01-11T13:38:30.010Z,10.1
2018-01-11T13:39:32.421Z,10.1
2018-01-11T13:40:34.839Z,10.1
2018-01-11T13:41:37.256Z,10.1
2018-01-11T13:42:39.673Z,10.1
2018-01-11T13:43:42.091Z,10.1
2018-01-11T13:44:44.494Z,10.2
2018-01-11T13:45:46.919Z,10.2
2018-01-11T13:46:49.325Z,10.2
2018-01-11T13:47:51.726Z,10.2
2018-01-11T13:48:54.145Z,10.2
2018-01-11T13:49:56.582Z,10.2
2018-01-11T13:50:58.969Z,10.2
2018-01-11T13:52:01.380Z,10.2
2018-01-11T13:53:03.782Z,10.2
2018-01-11T13:54:06.198Z,10.2
2018-01-11T13:55:08.628Z,10.2
2018-01-11T13:56:11.035Z,10.2
2018-01-11T13:57:13.453Z,10.2
2018-01-11T13:58:15.872Z,10.2
2018-01-11T13:59:18.285Z,10.2
2018-01-11T14:00:20.963Z,10.2
2018-01-11T14:01:23.667Z,10.2
2018-01-11T14:02:26.085Z,10.2
2018-01-11T14:03:28.501Z,10.2
2018-01-11T14:04:31.191Z,10.2
2018-01-11T14:05:33.602Z,10.2
2018-01-11T14:06:36.016Z,10.2
2018-01-11T14:07:38.754Z,10.2
2018-01-11T14:08:41.162Z,10.2
2018-01-11T14:09:43.564Z,10.2
2018-01-11T14:10:45.988Z,10.2
2018-01-11T14:11:48.692Z,10.2
2018-01-11T14:12:51.394Z,10.2
2018-01-11T14:13:53.814Z,10.2
2018-01-11T14:14:56.221Z,10.2
2018-01-11T14:15:58.918Z,10.2
2018-01-11T14:17:01.337Z,10.2
2018-01-11T14:18:03.744Z,10.3
2018-01-11T14:19:06.162Z,10.2
2018-01-11T14:20:08.592Z,10.2
2018-01-11T14:21:11.380Z,10.2